createdAt,value
2019-03-17T00:00:27.649Z,17.20
2019-03-17T00:01:57.623Z,17.20
2019-03-17T00:03:20.618Z,17.10
2019-03-17T00:04:46.084Z,17.10
2019-03-17T00:06:11.585Z,17.10
2019-03-17T00:07:37.046Z,17.10
2019-03-17T00:09:02.501Z,17.10
2019-03-17T00:10:28.035Z,17.10
2019-03-17T00:11:53.510Z,17.10
2019-03-17T00:13:18.978Z,17.10
2019-03-17T00:14:44.431Z,17.10
2019-03-17T00:16:10.230Z,17.00
2019-03-17T00:17:35.693Z,17.00
2019-03-17T00:19:01.064Z,17.00
2019-03-17T00:20:26.525Z,17.00
2019-03-17T00:21:52.093Z,17.00
2019-03-17T00:23:17.535Z,17.00
2019-03-17T00:24:43.010Z,16.90
2019-03-17T00:26:08.487Z,16.90
2019-03-17T00:27:33.922Z,17.00
2019-03-17T00:28:59.373Z,16.90
2019-03-17T00:30:24.936Z,16.90
2019-03-17T00:31:50.413Z,16.90
2019-03-17T00:33:15.860Z,16.90
2019-03-17T00:34:44.366Z,16.90
2019-03-17T00:36:08.374Z,16.90
2019-03-17T00:37:33.865Z,16.90
2019-03-17T00:38:59.375Z,16.90
2019-03-17T00:40:24.987Z,16.90
2019-03-17T00:41:50.507Z,16.80
2019-03-17T00:43:15.922Z,16.90
2019-03-17T00:44:41.360Z,16.90
2019-03-17T00:46:06.834Z,16.80
2019-03-17T00:47:32.371Z,16.80
2019-03-17T00:48:57.750Z,16.80
2019-03-17T00:50:23.228Z,16.80
2019-03-17T00:51:48.679Z,16.80
2019-03-17T00:53:14.181Z,16.80
2019-03-17T00:54:39.613Z,16.80
2019-03-17T00:56:05.312Z,16.80
2019-03-17T00:57:30.741Z,16.70
2019-03-17T00:58:56.307Z,16.80
2019-03-17T01:00:21.826Z,16.70
2019-03-17T01:01:47.351Z,16.70
2019-03-17T01:03:12.873Z,16.70
2019-03-17T01:04:38.335Z,16.70
2019-03-17T01:06:03.844Z,16.70
2019-03-17T01:07:29.302Z,16.70
2019-03-17T01:08:54.845Z,16.70
2019-03-17T01:10:20.347Z,16.70
2019-03-17T01:11:45.750Z,16.70
2019-03-17T01:13:11.224Z,16.70
2019-03-17T01:14:36.680Z,16.70
2019-03-17T01:16:02.147Z,16.70
2019-03-17T01:17:27.662Z,16.70
2019-03-17T01:18:53.131Z,16.60
2019-03-17T01:20:18.624Z,16.60
2019-03-17T01:21:44.089Z,16.60
2019-03-17T01:23:09.563Z,16.60
2019-03-17T01:24:35.034Z,16.60
2019-03-17T01:26:00.482Z,16.60
2019-03-17T01:27:25.926Z,16.50
2019-03-17T01:28:51.452Z,16.50
2019-03-17T01:30:17.035Z,16.50
2019-03-17T01:31:42.500Z,16.50
2019-03-17T01:33:08.143Z,16.50
2019-03-17T01:34:33.636Z,16.50
2019-03-17T01:35:59.062Z,16.50
2019-03-17T01:37:24.564Z,16.50
2019-03-17T01:38:50.068Z,16.50
2019-03-17T01:40:15.681Z,16.50
2019-03-17T01:41:41.123Z,16.50
2019-03-17T01:43:06.591Z,16.40
2019-03-17T01:44:32.131Z,16.40
2019-03-17T01:45:57.543Z,16.40
2019-03-17T01:47:22.980Z,16.40
2019-03-17T01:48:48.552Z,16.40
2019-03-17T01:50:14.183Z,16.40
2019-03-17T01:51:39.638Z,16.40
2019-03-17T01:53:05.139Z,16.40
2019-03-17T01:54:30.633Z,16.40
2019-03-17T01:55:56.075Z,16.40
2019-03-17T01:57:21.548Z,16.40
2019-03-17T01:58:47.007Z,16.30
2019-03-17T02:00:13.519Z,16.30
2019-03-17T02:01:38.946Z,16.30
2019-03-17T02:03:04.419Z,16.30
2019-03-17T02:04:29.870Z,16.30
2019-03-17T02:05:55.318Z,16.30
2019-03-17T02:07:20.883Z,16.30
2019-03-17T02:08:46.297Z,16.30
2019-03-17T02:10:11.970Z,16.40
2019-03-17T02:11:37.432Z,16.30
2019-03-17T02:13:02.880Z,16.30
2019-03-17T02:14:28.386Z,16.30
2019-03-17T02:15:53.827Z,16.30
2019-03-17T02:17:19.279Z,16.30
2019-03-17T02:18:44.711Z,16.30
2019-03-17T02:20:10.416Z,16.30
2019-03-17T02:21:35.901Z,16.20
2019-03-17T02:23:01.259Z,16.30
2019-03-17T02:24:26.734Z,16.20
2019-03-17T02:25:52.180Z,16.20
2019-03-17T02:27:17.636Z,16.20
2019-03-17T02:28:43.075Z,16.20
2019-03-17T02:30:09.897Z,16.20
2019-03-17T02:31:35.366Z,16.20
2019-03-17T02:33:00.800Z,16.20
2019-03-17T02:34:26.266Z,16.20
2019-03-17T02:35:51.740Z,16.10
2019-03-17T02:37:17.193Z,16.10
2019-03-17T02:38:42.573Z,16.10
2019-03-17T02:40:08.397Z,16.10
2019-03-17T02:41:33.825Z,16.00
2019-03-17T02:42:59.279Z,16.00
2019-03-17T02:44:24.717Z,16.00
2019-03-17T02:45:50.219Z,16.00
2019-03-17T02:47:15.670Z,16.00
2019-03-17T02:48:41.131Z,16.00
2019-03-17T02:50:06.843Z,16.00
2019-03-17T02:51:32.331Z,16.00
2019-03-17T02:52:57.784Z,16.00
2019-03-17T02:54:23.179Z,16.00
2019-03-17T02:55:48.635Z,16.00
2019-03-17T02:57:14.107Z,16.00
2019-03-17T02:58:39.528Z,16.00
2019-03-17T03:00:05.575Z,16.00
2019-03-17T03:01:31.262Z,15.90
2019-03-17T03:02:56.668Z,15.90
2019-03-17T03:04:22.231Z,15.90
2019-03-17T03:05:54.598Z,15.90
2019-03-17T03:07:14.782Z,15.90
2019-03-17T03:08:40.192Z,15.90
2019-03-17T03:10:06.015Z,15.90
2019-03-17T03:11:31.491Z,15.90
2019-03-17T03:12:56.985Z,15.90
2019-03-17T03:14:22.432Z,15.80
2019-03-17T03:15:47.905Z,15.90
2019-03-17T03:17:13.392Z,15.80
2019-03-17T03:18:38.837Z,15.80
2019-03-17T03:20:04.615Z,15.80
2019-03-17T03:21:30.183Z,15.80
2019-03-17T03:22:55.657Z,15.80
2019-03-17T03:24:21.122Z,15.80
2019-03-17T03:25:46.547Z,15.80
2019-03-17T03:27:12.014Z,15.80
2019-03-17T03:28:37.542Z,15.80
2019-03-17T03:30:03.061Z,15.80
2019-03-17T03:31:28.551Z,15.80
2019-03-17T03:32:54.028Z,15.80
2019-03-17T03:34:19.477Z,15.90
2019-03-17T03:35:44.939Z,15.80
2019-03-17T03:37:10.409Z,15.80
2019-03-17T03:38:35.779Z,15.80
2019-03-17T03:40:01.269Z,15.70
2019-03-17T03:41:26.826Z,15.80
2019-03-17T03:42:52.271Z,15.70
2019-03-17T03:44:17.773Z,15.70
2019-03-17T03:45:43.238Z,15.70
2019-03-17T03:47:08.670Z,15.70
2019-03-17T03:48:34.143Z,15.70
2019-03-17T03:49:59.621Z,15.70
2019-03-17T03:51:25.104Z,15.70
2019-03-17T03:52:50.731Z,15.70
2019-03-17T03:54:16.261Z,15.70
2019-03-17T03:55:42.427Z,15.70
2019-03-17T03:57:08.156Z,15.70
2019-03-17T03:58:33.571Z,15.70
2019-03-17T03:59:59.031Z,15.70
2019-03-17T04:01:24.501Z,15.60
2019-03-17T04:02:51.470Z,15.70
2019-03-17T04:04:17.216Z,15.60
2019-03-17T04:05:42.656Z,15.60
2019-03-17T04:07:08.147Z,15.60
2019-03-17T04:08:33.580Z,15.60
2019-03-17T04:09:59.117Z,15.60
2019-03-17T04:11:24.625Z,15.60
2019-03-17T04:12:50.089Z,15.60
2019-03-17T04:14:15.567Z,15.60
2019-03-17T04:15:40.970Z,15.70
2019-03-17T04:17:06.459Z,15.70
2019-03-17T04:18:31.894Z,15.60
2019-03-17T04:19:57.347Z,15.60
2019-03-17T04:21:22.784Z,15.60
2019-03-17T04:22:48.251Z,15.60
2019-03-17T04:24:13.713Z,15.60
2019-03-17T04:25:39.139Z,15.60
2019-03-17T04:27:04.707Z,15.50
2019-03-17T04:28:30.207Z,15.50
2019-03-17T04:29:55.633Z,15.50
2019-03-17T04:31:21.029Z,15.50
2019-03-17T04:32:46.613Z,15.50
2019-03-17T04:34:12.046Z,15.50
2019-03-17T04:35:37.509Z,15.50
2019-03-17T04:37:02.922Z,15.40
2019-03-17T04:38:28.408Z,15.40
2019-03-17T04:39:53.935Z,15.50
2019-03-17T04:41:19.355Z,15.50
2019-03-17T04:42:44.880Z,15.50
2019-03-17T04:44:20.435Z,15.50
2019-03-17T04:45:37.476Z,15.50
2019-03-17T04:47:02.870Z,15.50
2019-03-17T04:48:28.319Z,15.50
2019-03-17T04:49:53.809Z,15.40
2019-03-17T04:51:19.275Z,15.50
2019-03-17T04:52:44.744Z,15.40
2019-03-17T04:54:10.210Z,15.40
2019-03-17T04:55:35.667Z,15.40
2019-03-17T04:57:01.304Z,15.40
2019-03-17T04:58:26.763Z,15.40
2019-03-17T04:59:52.220Z,15.30
2019-03-17T05:01:17.672Z,15.30
2019-03-17T05:02:45.464Z,15.40
2019-03-17T05:04:10.211Z,15.40
2019-03-17T05:05:35.634Z,15.40
2019-03-17T05:07:01.107Z,15.40
2019-03-17T05:08:26.587Z,15.40
2019-03-17T05:09:52.154Z,15.20
2019-03-17T05:11:20.623Z,15.20
2019-03-17T05:12:46.169Z,15.20
2019-03-17T05:14:11.649Z,15.30
2019-03-17T05:15:37.299Z,15.20
2019-03-17T05:17:02.912Z,15.30
2019-03-17T05:18:28.377Z,15.20
2019-03-17T05:19:53.863Z,15.30
2019-03-17T05:21:19.426Z,15.30
2019-03-17T05:22:44.847Z,15.30
2019-03-17T05:24:10.322Z,15.20
2019-03-17T05:25:35.797Z,15.20
2019-03-17T05:27:01.227Z,15.20
2019-03-17T05:28:26.630Z,15.30
2019-03-17T05:29:52.135Z,15.30
2019-03-17T05:31:20.520Z,15.30
2019-03-17T05:32:46.135Z,15.30
2019-03-17T05:34:11.600Z,15.30
2019-03-17T05:35:37.082Z,15.20
2019-03-17T05:37:06.473Z,15.30
2019-03-17T05:38:29.653Z,15.30
2019-03-17T05:39:55.161Z,15.30
2019-03-17T05:41:20.690Z,15.30
2019-03-17T05:42:46.266Z,15.30
2019-03-17T05:44:11.740Z,15.20
2019-03-17T05:45:37.186Z,15.20
2019-03-17T05:47:02.635Z,15.20
2019-03-17T05:48:28.135Z,15.20
2019-03-17T05:49:53.643Z,15.20
2019-03-17T05:51:20.747Z,15.20
2019-03-17T05:52:47.507Z,15.20
2019-03-17T05:54:12.959Z,15.20
2019-03-17T05:55:38.435Z,15.20
2019-03-17T05:57:03.919Z,15.20
2019-03-17T05:58:29.302Z,15.10
2019-03-17T05:59:54.779Z,15.10
2019-03-17T06:01:20.197Z,15.10
2019-03-17T06:02:45.915Z,15.10
2019-03-17T06:04:11.345Z,15.10
2019-03-17T06:05:36.855Z,15.10
2019-03-17T06:07:02.319Z,15.00
2019-03-17T06:08:27.773Z,15.00
2019-03-17T06:09:53.215Z,15.00
2019-03-17T06:11:18.714Z,15.00
2019-03-17T06:12:44.215Z,15.00
2019-03-17T06:14:09.685Z,15.00
2019-03-17T06:15:35.162Z,15.00
2019-03-17T06:17:00.614Z,15.00
2019-03-17T06:18:26.026Z,15.00
2019-03-17T06:19:51.454Z,15.00
2019-03-17T06:21:17.050Z,15.00
2019-03-17T06:22:42.493Z,15.00
2019-03-17T06:24:07.988Z,15.00
2019-03-17T06:25:33.513Z,15.00
2019-03-17T06:26:58.968Z,15.00
2019-03-17T06:28:24.450Z,15.00
2019-03-17T06:29:49.888Z,15.00
2019-03-17T06:31:15.492Z,15.00
2019-03-17T06:32:40.928Z,15.00
2019-03-17T06:34:06.489Z,15.00
2019-03-17T06:35:31.978Z,15.00
2019-03-17T06:36:57.452Z,15.00
2019-03-17T06:38:22.886Z,15.00
2019-03-17T06:39:48.436Z,15.00
2019-03-17T06:41:13.864Z,14.90
2019-03-17T06:42:39.316Z,14.90
2019-03-17T06:44:04.967Z,14.90
2019-03-17T06:45:30.524Z,14.90
2019-03-17T06:46:55.976Z,14.90
2019-03-17T06:48:21.436Z,14.80
2019-03-17T06:49:49.606Z,14.90
2019-03-17T06:51:15.097Z,14.90
2019-03-17T06:52:40.555Z,14.90
2019-03-17T06:54:06.050Z,15.00
2019-03-17T06:55:31.519Z,15.00
2019-03-17T06:56:56.983Z,15.00
2019-03-17T06:58:22.396Z,15.00
2019-03-17T06:59:47.947Z,15.10
2019-03-17T07:01:13.510Z,15.10
2019-03-17T07:02:38.962Z,15.10
2019-03-17T07:04:04.381Z,15.10
2019-03-17T07:05:29.871Z,15.10
2019-03-17T07:06:55.473Z,15.10
2019-03-17T07:08:20.956Z,15.10
2019-03-17T07:09:47.450Z,15.10
2019-03-17T07:11:12.957Z,15.20
2019-03-17T07:12:47.894Z,15.20
2019-03-17T07:14:19.501Z,15.20
2019-03-17T07:15:46.627Z,15.20
2019-03-17T07:17:12.191Z,15.30
2019-03-17T07:18:37.665Z,15.30
2019-03-17T07:20:03.125Z,15.40
2019-03-17T07:21:28.576Z,15.40
2019-03-17T07:22:54.269Z,15.40
2019-03-17T07:24:19.743Z,15.40
2019-03-17T07:25:45.154Z,15.50
2019-03-17T07:27:10.646Z,15.50
2019-03-17T07:28:36.062Z,15.50
2019-03-17T07:30:01.482Z,15.60
2019-03-17T07:31:26.935Z,15.60
2019-03-17T07:32:52.411Z,15.60
2019-03-17T07:34:18.059Z,15.70
2019-03-17T07:35:46.189Z,15.60
2019-03-17T07:37:10.751Z,15.70
2019-03-17T07:38:36.197Z,15.70
2019-03-17T07:40:01.661Z,15.70
2019-03-17T07:41:27.110Z,15.80
2019-03-17T07:42:52.605Z,15.80
2019-03-17T07:44:18.039Z,15.90
2019-03-17T07:45:43.499Z,15.90
2019-03-17T07:47:09.071Z,16.00
2019-03-17T07:48:34.558Z,16.10
2019-03-17T07:50:00.064Z,16.10
2019-03-17T07:51:25.562Z,16.10
2019-03-17T07:52:51.113Z,16.10
2019-03-17T07:54:18.077Z,16.00
2019-03-17T07:55:43.550Z,16.10
2019-03-17T07:57:09.073Z,16.20
2019-03-17T07:58:34.545Z,16.20
2019-03-17T08:00:01.209Z,16.20
2019-03-17T08:01:26.681Z,16.30
2019-03-17T08:02:52.157Z,16.20
2019-03-17T08:04:17.851Z,16.20
2019-03-17T08:05:43.742Z,16.20
2019-03-17T08:07:09.223Z,16.30
2019-03-17T08:08:34.819Z,16.30
2019-03-17T08:10:00.464Z,16.40
2019-03-17T08:11:26.000Z,16.40
2019-03-17T08:12:51.437Z,16.50
2019-03-17T08:14:17.037Z,16.60
2019-03-17T08:15:42.500Z,16.60
2019-03-17T08:17:07.938Z,16.60
2019-03-17T08:18:33.439Z,16.70
2019-03-17T08:19:58.892Z,16.70
2019-03-17T08:21:24.390Z,16.80
2019-03-17T08:22:49.841Z,16.80
2019-03-17T08:24:16.683Z,16.80
2019-03-17T08:25:42.333Z,16.90
2019-03-17T08:27:07.898Z,16.90
2019-03-17T08:28:33.515Z,17.00
2019-03-17T08:29:59.100Z,17.00
2019-03-17T08:31:24.975Z,17.10
2019-03-17T08:32:50.415Z,17.10
2019-03-17T08:34:16.000Z,17.20
2019-03-17T08:35:41.591Z,17.20
2019-03-17T08:37:07.094Z,17.30
2019-03-17T08:38:32.654Z,17.30
2019-03-17T08:39:58.188Z,17.40
2019-03-17T08:41:26.783Z,17.40
2019-03-17T08:42:52.287Z,17.40
2019-03-17T08:44:17.922Z,17.40
2019-03-17T08:45:43.453Z,17.50
2019-03-17T08:47:08.883Z,17.50
2019-03-17T08:48:34.314Z,17.60
2019-03-17T08:49:59.844Z,17.60
2019-03-17T08:51:25.986Z,17.70
2019-03-17T08:52:51.741Z,17.70
2019-03-17T08:54:17.399Z,17.70
2019-03-17T08:55:43.123Z,17.70
2019-03-17T08:57:08.644Z,17.70
2019-03-17T08:58:34.149Z,17.70
2019-03-17T09:00:02.985Z,17.80
2019-03-17T09:01:28.444Z,17.80
2019-03-17T09:02:53.931Z,17.80
2019-03-17T09:04:19.404Z,17.80
2019-03-17T09:05:44.819Z,17.80
2019-03-17T09:07:10.451Z,17.80
2019-03-17T09:08:36.597Z,17.80
2019-03-17T09:10:02.804Z,17.90
2019-03-17T09:11:29.303Z,17.90
2019-03-17T09:12:55.201Z,18.00
2019-03-17T09:14:21.246Z,18.00
2019-03-17T09:15:48.593Z,18.00
2019-03-17T09:17:14.891Z,18.00
2019-03-17T09:18:40.547Z,18.10
2019-03-17T09:20:06.417Z,18.10
2019-03-17T09:21:31.827Z,18.20
2019-03-17T09:23:07.146Z,18.20
2019-03-17T09:24:37.428Z,18.30
2019-03-17T09:26:04.080Z,18.20
2019-03-17T09:27:29.519Z,18.30
2019-03-17T09:28:55.047Z,18.40
2019-03-17T09:30:20.828Z,18.40
2019-03-17T09:31:46.242Z,18.40
2019-03-17T09:33:11.809Z,18.50
2019-03-17T09:34:37.291Z,18.50
2019-03-17T09:36:02.752Z,18.60
2019-03-17T09:37:28.840Z,18.60
2019-03-17T09:38:54.303Z,18.60
2019-03-17T09:40:19.780Z,18.60
2019-03-17T09:41:45.265Z,18.70
2019-03-17T09:43:10.813Z,18.70
2019-03-17T09:44:36.667Z,18.70
2019-03-17T09:46:02.225Z,18.80
2019-03-17T09:47:27.702Z,18.80
2019-03-17T09:48:53.134Z,18.80
2019-03-17T09:50:19.145Z,18.80
2019-03-17T09:51:44.729Z,18.80
2019-03-17T09:53:10.198Z,18.80
2019-03-17T09:54:35.650Z,18.80
2019-03-17T09:56:01.210Z,18.90
2019-03-17T09:57:29.294Z,19.00
2019-03-17T09:58:54.832Z,19.00
2019-03-17T10:00:20.379Z,19.10
2019-03-17T10:01:45.831Z,19.00
2019-03-17T10:03:11.441Z,19.00
2019-03-17T10:04:36.945Z,19.10
2019-03-17T10:06:02.536Z,19.10
2019-03-17T10:07:28.157Z,19.10
2019-03-17T10:08:59.892Z,19.10
2019-03-17T10:10:23.979Z,19.10
2019-03-17T10:11:49.420Z,19.10
2019-03-17T10:13:15.117Z,19.10
2019-03-17T10:14:40.953Z,19.10
2019-03-17T10:16:06.497Z,19.10
2019-03-17T10:17:32.143Z,19.10
2019-03-17T10:18:57.578Z,19.20
2019-03-17T10:20:22.985Z,19.30
2019-03-17T10:21:51.443Z,19.30
2019-03-17T10:23:17.045Z,19.30
2019-03-17T10:24:42.516Z,19.30
2019-03-17T10:26:08.267Z,19.30
2019-03-17T10:27:33.804Z,19.40
2019-03-17T10:28:59.226Z,19.40
2019-03-17T10:30:24.915Z,19.40
2019-03-17T10:31:50.425Z,19.40
2019-03-17T10:33:16.016Z,19.40
2019-03-17T10:34:41.625Z,19.50
2019-03-17T10:36:07.234Z,19.60
2019-03-17T10:37:33.065Z,19.60
2019-03-17T10:38:58.708Z,19.60
2019-03-17T10:40:24.302Z,19.70
2019-03-17T10:41:49.854Z,19.60
2019-03-17T10:43:15.305Z,19.70
2019-03-17T10:44:40.796Z,19.70
2019-03-17T10:46:06.378Z,19.70
2019-03-17T10:47:31.988Z,19.70
2019-03-17T10:48:57.450Z,19.70
2019-03-17T10:50:23.006Z,19.80
2019-03-17T10:51:48.580Z,19.70
2019-03-17T10:53:14.553Z,19.80
2019-03-17T10:54:40.329Z,19.70
2019-03-17T10:56:06.080Z,19.70
2019-03-17T10:57:31.635Z,19.60
2019-03-17T10:58:57.097Z,19.60
2019-03-17T11:00:25.516Z,19.70
2019-03-17T11:01:51.119Z,19.60
2019-03-17T11:03:16.703Z,19.60
2019-03-17T11:04:42.175Z,19.60
2019-03-17T11:06:07.566Z,19.60
2019-03-17T11:07:33.120Z,19.50
2019-03-17T11:08:58.672Z,19.50
2019-03-17T11:10:24.067Z,19.50
2019-03-17T11:11:49.531Z,19.60
2019-03-17T11:13:14.991Z,19.60
2019-03-17T11:14:40.487Z,19.60
2019-03-17T11:16:08.766Z,19.60
2019-03-17T11:17:34.403Z,19.60
2019-03-17T11:19:00.127Z,19.60
2019-03-17T11:20:26.191Z,19.60
2019-03-17T11:21:51.724Z,19.50
2019-03-17T11:23:17.493Z,19.40
2019-03-17T11:24:43.086Z,19.40
2019-03-17T11:26:08.735Z,19.50
2019-03-17T11:27:34.689Z,19.40
2019-03-17T11:29:00.348Z,19.50
2019-03-17T11:30:25.822Z,19.50
2019-03-17T11:31:51.362Z,19.50
2019-03-17T11:33:17.135Z,19.50
2019-03-17T11:34:43.095Z,19.60
2019-03-17T11:36:08.611Z,19.60
2019-03-17T11:37:34.500Z,19.50
2019-03-17T11:38:59.990Z,19.50
2019-03-17T11:40:25.827Z,19.50
2019-03-17T11:41:51.331Z,19.50
2019-03-17T11:43:16.919Z,19.60
2019-03-17T11:44:42.553Z,19.60
2019-03-17T11:46:08.192Z,19.60
2019-03-17T11:47:34.279Z,19.60
2019-03-17T11:48:59.885Z,19.60
2019-03-17T11:50:25.378Z,19.70
2019-03-17T11:51:50.864Z,19.70
2019-03-17T11:53:16.458Z,19.80
2019-03-17T11:54:42.187Z,19.80
2019-03-17T11:56:07.648Z,19.80
2019-03-17T11:57:33.165Z,19.70
2019-03-17T11:59:02.973Z,19.80
2019-03-17T12:00:28.509Z,19.80
2019-03-17T12:01:53.998Z,19.80
2019-03-17T12:03:19.584Z,19.90
2019-03-17T12:04:45.098Z,19.90
2019-03-17T12:06:10.724Z,19.90
2019-03-17T12:07:36.350Z,20.00
2019-03-17T12:09:04.366Z,19.90
2019-03-17T12:10:29.413Z,19.90
2019-03-17T12:11:54.929Z,19.90
2019-03-17T12:13:21.179Z,19.90
2019-03-17T12:14:47.179Z,19.90
2019-03-17T12:16:12.640Z,19.80
2019-03-17T12:17:38.689Z,19.80
2019-03-17T12:19:23.094Z,19.80
2019-03-17T12:20:48.927Z,19.80
2019-03-17T12:22:14.361Z,19.80
2019-03-17T12:23:39.864Z,19.70
2019-03-17T12:25:05.767Z,19.70
2019-03-17T12:26:31.380Z,19.60
2019-03-17T12:27:57.072Z,19.60
2019-03-17T12:29:22.882Z,19.60
2019-03-17T12:30:48.334Z,19.60
2019-03-17T12:32:13.762Z,19.60
2019-03-17T12:33:39.182Z,19.50
2019-03-17T12:35:04.834Z,19.60
2019-03-17T12:36:30.272Z,19.60
2019-03-17T12:37:55.832Z,19.60
2019-03-17T12:39:21.339Z,19.70
2019-03-17T12:40:46.807Z,19.70
2019-03-17T12:42:12.297Z,19.70
2019-03-17T12:43:37.824Z,19.70
2019-03-17T12:45:03.462Z,19.70
2019-03-17T12:46:28.927Z,19.70
2019-03-17T12:47:54.345Z,19.70
2019-03-17T12:49:19.868Z,19.70
2019-03-17T12:50:45.285Z,19.80
2019-03-17T12:52:10.729Z,19.80
2019-03-17T12:53:39.419Z,19.80
2019-03-17T12:55:05.397Z,19.70
2019-03-17T12:56:30.950Z,19.80
2019-03-17T12:57:56.531Z,19.80
2019-03-17T12:59:22.059Z,19.80
2019-03-17T13:00:50.092Z,19.80
2019-03-17T13:02:15.563Z,19.80
2019-03-17T13:03:41.019Z,19.80
2019-03-17T13:05:06.663Z,19.80
2019-03-17T13:06:32.139Z,19.80
2019-03-17T13:07:57.628Z,19.70
2019-03-17T13:09:23.134Z,19.70
2019-03-17T13:10:48.655Z,19.70
2019-03-17T13:12:14.352Z,19.70
2019-03-17T13:13:39.822Z,19.70
2019-03-17T13:15:05.636Z,19.70
2019-03-17T13:16:34.931Z,19.70
2019-03-17T13:18:00.366Z,19.70
2019-03-17T13:19:25.858Z,19.60
2019-03-17T13:20:51.354Z,19.70
2019-03-17T13:22:16.892Z,19.60
2019-03-17T13:23:42.319Z,19.70
2019-03-17T13:25:08.382Z,19.70
2019-03-17T13:26:33.911Z,19.60
2019-03-17T13:27:59.315Z,19.60
2019-03-17T13:29:24.811Z,19.60
2019-03-17T13:30:50.352Z,19.60
2019-03-17T13:32:15.906Z,19.70
2019-03-17T13:33:41.423Z,19.70
2019-03-17T13:35:07.522Z,19.70
2019-03-17T13:36:33.114Z,19.80
2019-03-17T13:37:58.564Z,19.80
2019-03-17T13:39:23.999Z,19.70
2019-03-17T13:40:49.453Z,19.80
2019-03-17T13:42:14.915Z,19.80
2019-03-17T13:43:40.377Z,19.80
2019-03-17T13:45:06.440Z,19.80
2019-03-17T13:46:31.883Z,19.80
2019-03-17T13:47:57.865Z,19.80
2019-03-17T13:49:23.309Z,19.70
2019-03-17T13:50:48.805Z,19.70
2019-03-17T13:52:14.261Z,19.70
2019-03-17T13:53:39.647Z,19.70
2019-03-17T13:55:05.340Z,19.70
2019-03-17T13:56:30.819Z,19.70
2019-03-17T13:57:57.514Z,19.80
2019-03-17T13:59:22.992Z,19.80
2019-03-17T14:00:48.472Z,19.80
2019-03-17T14:02:13.972Z,19.80
2019-03-17T14:03:39.419Z,19.80
2019-03-17T14:05:05.079Z,19.80
2019-03-17T14:06:30.540Z,19.90
2019-03-17T14:07:56.042Z,19.90
2019-03-17T14:09:21.487Z,19.90
2019-03-17T14:10:46.994Z,19.80
2019-03-17T14:12:12.492Z,19.80
2019-03-17T14:13:38.048Z,19.80
2019-03-17T14:15:03.490Z,19.80
2019-03-17T14:16:28.991Z,19.80
2019-03-17T14:17:54.428Z,19.80
2019-03-17T14:19:19.869Z,19.80
2019-03-17T14:20:45.289Z,19.80
2019-03-17T14:22:10.832Z,19.80
2019-03-17T14:23:36.312Z,19.70
2019-03-17T14:25:01.802Z,19.70
2019-03-17T14:26:27.233Z,19.80
2019-03-17T14:27:52.865Z,19.80
2019-03-17T14:29:18.338Z,19.80
2019-03-17T14:30:43.816Z,19.70
2019-03-17T14:32:09.275Z,19.70
2019-03-17T14:33:34.702Z,19.80
2019-03-17T14:35:00.365Z,19.70
2019-03-17T14:36:25.873Z,19.70
2019-03-17T14:37:51.353Z,19.70
2019-03-17T14:39:16.796Z,19.70
2019-03-17T14:40:52.840Z,19.80
2019-03-17T14:42:09.399Z,19.80
2019-03-17T14:43:35.016Z,19.80
2019-03-17T14:45:00.483Z,19.80
2019-03-17T14:46:26.023Z,19.80
2019-03-17T14:47:51.642Z,19.80
2019-03-17T14:49:17.108Z,19.80
2019-03-17T14:50:42.581Z,19.80
2019-03-17T14:52:08.136Z,19.80
2019-03-17T14:53:33.653Z,19.80
2019-03-17T14:54:59.195Z,19.70
2019-03-17T14:56:24.787Z,19.70
2019-03-17T14:57:50.241Z,19.70
2019-03-17T14:59:15.788Z,19.70
2019-03-17T15:00:41.355Z,19.70
2019-03-17T15:02:06.990Z,19.70
2019-03-17T15:03:32.559Z,19.70
2019-03-17T15:04:58.026Z,19.70
2019-03-17T15:06:23.464Z,19.60
2019-03-17T15:07:49.004Z,19.70
2019-03-17T15:09:14.455Z,19.70
2019-03-17T15:10:39.979Z,19.80
2019-03-17T15:12:05.737Z,19.80
2019-03-17T15:13:31.227Z,19.70
2019-03-17T15:14:56.708Z,19.70
2019-03-17T15:16:22.142Z,19.70
2019-03-17T15:17:48.090Z,19.60
2019-03-17T15:19:13.819Z,19.70
2019-03-17T15:20:39.268Z,19.70
2019-03-17T15:22:04.846Z,19.70
2019-03-17T15:23:30.273Z,19.70
2019-03-17T15:24:55.699Z,19.70
2019-03-17T15:26:21.164Z,19.70
2019-03-17T15:28:05.755Z,19.80
2019-03-17T15:29:31.197Z,19.70
2019-03-17T15:31:10.218Z,19.70
2019-03-17T15:32:23.704Z,19.80
2019-03-17T15:33:49.208Z,19.80
2019-03-17T15:35:14.792Z,19.80
2019-03-17T15:36:40.265Z,19.80
2019-03-17T15:38:06.007Z,19.80
2019-03-17T15:39:31.477Z,19.80
2019-03-17T15:40:56.889Z,19.80
2019-03-17T15:42:22.344Z,19.80
2019-03-17T15:43:47.865Z,19.80
2019-03-17T15:45:15.039Z,19.70
2019-03-17T15:46:40.599Z,19.70
2019-03-17T15:48:06.076Z,19.80
2019-03-17T15:49:31.555Z,19.80
2019-03-17T15:50:57.231Z,19.80
2019-03-17T15:52:22.688Z,19.70
2019-03-17T15:53:48.167Z,19.80
2019-03-17T15:55:14.414Z,19.80
2019-03-17T15:56:39.920Z,19.70
2019-03-17T15:58:05.738Z,19.70
2019-03-17T15:59:31.215Z,19.70
2019-03-17T16:00:56.646Z,19.70
2019-03-17T16:02:22.189Z,19.60
2019-03-17T16:03:47.682Z,19.70
2019-03-17T16:05:13.507Z,19.60
2019-03-17T16:06:38.966Z,19.60
2019-03-17T16:08:04.449Z,19.60
2019-03-17T16:09:30.332Z,19.60
2019-03-17T16:10:55.783Z,19.60
2019-03-17T16:12:21.197Z,19.60
2019-03-17T16:13:47.303Z,19.60
2019-03-17T16:15:13.761Z,19.60
2019-03-17T16:16:39.222Z,19.70
2019-03-17T16:18:06.817Z,19.70
2019-03-17T16:19:32.331Z,19.60
2019-03-17T16:20:57.849Z,19.70
2019-03-17T16:22:23.380Z,19.70
2019-03-17T16:23:48.785Z,19.70
2019-03-17T16:25:15.024Z,19.70
2019-03-17T16:26:40.487Z,19.70
2019-03-17T16:28:06.319Z,19.70
2019-03-17T16:29:31.800Z,19.70
2019-03-17T16:30:57.234Z,19.70
2019-03-17T16:32:22.835Z,19.70
2019-03-17T16:33:48.414Z,19.60
2019-03-17T16:35:14.088Z,19.60
2019-03-17T16:36:39.627Z,19.60
2019-03-17T16:38:05.196Z,19.70
2019-03-17T16:39:30.638Z,19.60
2019-03-17T16:40:56.095Z,19.70
2019-03-17T16:42:21.566Z,19.70
2019-03-17T16:43:47.060Z,19.70
2019-03-17T16:45:13.205Z,19.70
2019-03-17T16:46:38.662Z,19.70
2019-03-17T16:48:04.358Z,19.70
2019-03-17T16:49:29.811Z,19.70
2019-03-17T16:50:55.285Z,19.70
2019-03-17T16:52:20.745Z,19.70
2019-03-17T16:53:46.310Z,19.70
2019-03-17T16:55:13.156Z,19.70
2019-03-17T16:56:38.687Z,19.70
2019-03-17T16:58:04.462Z,19.70
2019-03-17T16:59:29.939Z,19.70
2019-03-17T17:00:55.505Z,19.70
2019-03-17T17:02:21.312Z,19.70
2019-03-17T17:03:46.838Z,19.70
2019-03-17T17:05:12.760Z,19.70
2019-03-17T17:06:38.299Z,19.70
2019-03-17T17:08:03.789Z,19.70
2019-03-17T17:09:29.399Z,19.80
2019-03-17T17:10:54.909Z,19.80
2019-03-17T17:12:20.517Z,19.80
2019-03-17T17:13:46.016Z,19.70
2019-03-17T17:15:15.117Z,19.70
2019-03-17T17:16:40.592Z,19.80
2019-03-17T17:18:06.063Z,19.70
2019-03-17T17:19:31.795Z,19.80
2019-03-17T17:20:57.263Z,19.80
2019-03-17T17:22:22.733Z,19.80
2019-03-17T17:23:48.254Z,19.80
2019-03-17T17:25:13.916Z,19.80
2019-03-17T17:26:39.372Z,19.80
2019-03-17T17:28:05.299Z,19.80
2019-03-17T17:29:30.748Z,19.80
2019-03-17T17:30:56.165Z,19.80
2019-03-17T17:32:21.653Z,19.80
2019-03-17T17:33:47.647Z,19.80
2019-03-17T17:35:13.373Z,19.80
2019-03-17T17:36:39.111Z,19.80
2019-03-17T17:38:04.883Z,19.80
2019-03-17T17:39:30.471Z,19.80
2019-03-17T17:40:56.141Z,19.80
2019-03-17T17:42:21.631Z,19.80
2019-03-17T17:43:47.306Z,19.80
2019-03-17T17:45:14.335Z,19.80
2019-03-17T17:46:39.806Z,19.80
2019-03-17T17:48:05.531Z,19.80
2019-03-17T17:49:31.039Z,19.80
2019-03-17T17:50:56.605Z,19.80
2019-03-17T17:52:22.284Z,19.80
2019-03-17T17:53:47.704Z,19.80
2019-03-17T17:55:13.531Z,19.80
2019-03-17T17:56:39.019Z,19.80
2019-03-17T17:58:04.899Z,19.80
2019-03-17T17:59:30.378Z,19.80
2019-03-17T18:00:55.813Z,19.80
2019-03-17T18:02:21.244Z,19.80
2019-03-17T18:03:51.660Z,19.80
2019-03-17T18:05:13.955Z,19.80
2019-03-17T18:06:39.565Z,19.80
2019-03-17T18:08:05.563Z,19.70
2019-03-17T18:09:31.055Z,19.70
2019-03-17T18:10:56.698Z,19.70
2019-03-17T18:12:22.159Z,19.80
2019-03-17T18:13:47.594Z,19.80
2019-03-17T18:15:14.829Z,19.70
2019-03-17T18:16:41.727Z,19.70
2019-03-17T18:18:07.482Z,19.70
2019-03-17T18:19:32.943Z,19.70
2019-03-17T18:20:58.459Z,19.70
2019-03-17T18:22:25.768Z,19.70
2019-03-17T18:23:51.252Z,19.70